sensor_id;sensor_type;location;lat;lon;timestamp;temperature;humidity
15103;DHT22;7652;53.584;9.998;2023-07-13T00:02:55;17.50;99.90
15103;DHT22;7652;53.584;9.998;2023-07-13T00:06:17;17.50;99.90
15103;DHT22;7652;53.584;9.998;2023-07-13T00:09:40;17.40;99.90
15103;DHT22;7652;53.584;9.998;2023-07-13T00:13:01;17.40;99.90
15103;DHT22;7652;53.584;9.998;2023-07-13T00:16:23;17.30;99.90
15103;DHT22;7652;53.584;9.998;2023-07-13T00:19:46;17.20;99.90
15103;DHT22;7652;53.584;9.998;2023-07-13T00:23:08;17.20;99.90
15103;DHT22;7652;53.584;9.998;2023-07-13T00:26:29;17.20;99.90
15103;DHT22;7652;53.584;9.998;2023-07-13T00:29:52;17.10;99.90
15103;DHT22;7652;53.584;9.998;2023-07-13T00:33:14;17.10;99.90
15103;DHT22;7652;53.584;9.998;2023-07-13T00:36:39;17.00;99.90
15103;DHT22;7652;53.584;9.998;2023-07-13T00:40:01;16.90;99.90
15103;DHT22;7652;53.584;9.998;2023-07-13T00:43:24;16.90;99.90
15103;DHT22;7652;53.584;9.998;2023-07-13T00:46:46;16.90;99.90
15103;DHT22;7652;53.584;9.998;2023-07-13T00:50:10;16.90;99.90
15103;DHT22;7652;53.584;9.998;2023-07-13T00:53:34;16.90;99.90
15103;DHT22;7652;53.584;9.998;2023-07-13T00:57:00;17.00;99.90
15103;DHT22;7652;53.584;9.998;2023-07-13T01:00:22;17.00;99.90
15103;DHT22;7652;53.584;9.998;2023-07-13T01:03:46;17.00;99.90
15103;DHT22;7652;53.584;9.998;2023-07-13T01:07:07;17.10;99.90
15103;DHT22;7652;53.584;9.998;2023-07-13T01:10:30;17.10;99.90
15103;DHT22;7652;53.584;9.998;2023-07-13T01:13:59;17.20;99.90
15103;DHT22;7652;53.584;9.998;2023-07-13T01:17:21;17.20;99.90
15103;DHT22;7652;53.584;9.998;2023-07-13T01:20:52;17.20;99.90
15103;DHT22;7652;53.584;9.998;2023-07-13T01:24:13;17.20;99.90
15103;DHT22;7652;53.584;9.998;2023-07-13T01:27:35;17.20;99.90
15103;DHT22;7652;53.584;9.998;2023-07-13T01:30:58;17.20;99.90
15103;DHT22;7652;53.584;9.998;2023-07-13T01:34:20;17.10;99.90
15103;DHT22;7652;53.584;9.998;2023-07-13T01:37:42;17.10;99.90
15103;DHT22;7652;53.584;9.998;2023-07-13T01:41:05;17.10;99.90
15103;DHT22;7652;53.584;9.998;2023-07-13T01:44:27;17.20;99.90
15103;DHT22;7652;53.584;9.998;2023-07-13T01:47:49;17.10;99.90
15103;DHT22;7652;53.584;9.998;2023-07-13T01:51:10;17.00;99.90
15103;DHT22;7652;53.584;9.998;2023-07-13T01:54:34;17.00;99.90
15103;DHT22;7652;53.584;9.998;2023-07-13T01:57:55;17.00;99.90
15103;DHT22;7652;53.584;9.998;2023-07-13T02:01:17;17.00;99.90
15103;DHT22;7652;53.584;9.998;2023-07-13T02:04:39;16.90;99.90
15103;DHT22;7652;53.584;9.998;2023-07-13T02:08:00;17.00;99.90
15103;DHT22;7652;53.584;9.998;2023-07-13T02:11:23;17.00;99.90
15103;DHT22;7652;53.584;9.998;2023-07-13T02:14:45;16.90;99.90
15103;DHT22;7652;53.584;9.998;2023-07-13T02:18:07;16.90;99.90
15103;DHT22;7652;53.584;9.998;2023-07-13T02:21:29;16.80;99.90
15103;DHT22;7652;53.584;9.998;2023-07-13T02:24:51;16.80;99.90
15103;DHT22;7652;53.584;9.998;2023-07-13T02:28:14;16.80;99.90
15103;DHT22;7652;53.584;9.998;2023-07-13T02:31:35;16.90;99.90
15103;DHT22;7652;53.584;9.998;2023-07-13T02:34:57;16.80;99.90
15103;DHT22;7652;53.584;9.998;2023-07-13T02:38:18;16.80;99.90
15103;DHT22;7652;53.584;9.998;2023-07-13T02:41:40;16.80;99.90
15103;DHT22;7652;53.584;9.998;2023-07-13T02:45:03;16.70;99.90
15103;DHT22;7652;53.584;9.998;2023-07-13T02:48:25;16.70;99.90
15103;DHT22;7652;53.584;9.998;2023-07-13T02:51:47;16.70;99.90
15103;DHT22;7652;53.584;9.998;2023-07-13T02:55:09;16.70;99.90
15103;DHT22;7652;53.584;9.998;2023-07-13T02:58:30;16.70;99.90
15103;DHT22;7652;53.584;9.998;2023-07-13T03:01:53;16.60;99.90
15103;DHT22;7652;53.584;9.998;2023-07-13T03:05:15;16.70;99.90
15103;DHT22;7652;53.584;9.998;2023-07-13T03:08:36;16.70;99.90
15103;DHT22;7652;53.584;9.998;2023-07-13T03:11:58;16.70;99.90
15103;DHT22;7652;53.584;9.998;2023-07-13T03:15:20;16.60;99.90
15103;DHT22;7652;53.584;9.998;2023-07-13T03:18:43;16.70;99.90
15103;DHT22;7652;53.584;9.998;2023-07-13T03:22:05;16.60;99.90
15103;DHT22;7652;53.584;9.998;2023-07-13T03:25:26;16.60;99.90
15103;DHT22;7652;53.584;9.998;2023-07-13T03:28:48;16.60;99.90
15103;DHT22;7652;53.584;9.998;2023-07-13T03:32:10;16.60;99.90
15103;DHT22;7652;53.584;9.998;2023-07-13T03:35:33;16.60;99.90
15103;DHT22;7652;53.584;9.998;2023-07-13T03:38:57;16.60;99.90
15103;DHT22;7652;53.584;9.998;2023-07-13T03:42:18;16.60;99.90
15103;DHT22;7652;53.584;9.998;2023-07-13T03:45:40;16.60;99.90
15103;DHT22;7652;53.584;9.998;2023-07-13T03:49:03;16.60;99.90
15103;DHT22;7652;53.584;9.998;2023-07-13T03:52:26;16.60;99.90
15103;DHT22;7652;53.584;9.998;2023-07-13T03:55:48;16.70;99.90
15103;DHT22;7652;53.584;9.998;2023-07-13T03:59:10;16.70;99.90
15103;DHT22;7652;53.584;9.998;2023-07-13T04:02:31;16.80;99.90
15103;DHT22;7652;53.584;9.998;2023-07-13T04:05:54;16.80;99.90
15103;DHT22;7652;53.584;9.998;2023-07-13T04:09:17;16.80;99.90
15103;DHT22;7652;53.584;9.998;2023-07-13T04:12:39;16.90;99.90
15103;DHT22;7652;53.584;9.998;2023-07-13T04:16:00;16.90;99.90
15103;DHT22;7652;53.584;9.998;2023-07-13T04:19:22;16.90;99.90
15103;DHT22;7652;53.584;9.998;2023-07-13T04:22:43;16.90;99.90
15103;DHT22;7652;53.584;9.998;2023-07-13T04:26:06;17.00;99.90
15103;DHT22;7652;53.584;9.998;2023-07-13T04:29:29;17.00;99.90
15103;DHT22;7652;53.584;9.998;2023-07-13T04:32:51;16.90;99.90
15103;DHT22;7652;53.584;9.998;2023-07-13T04:36:13;17.00;99.90
15103;DHT22;7652;53.584;9.998;2023-07-13T04:39:35;17.00;99.90
15103;DHT22;7652;53.584;9.998;2023-07-13T04:42:58;17.10;99.90
15103;DHT22;7652;53.584;9.998;2023-07-13T04:46:19;17.10;99.90
15103;DHT22;7652;53.584;9.998;2023-07-13T04:49:41;17.10;99.90
15103;DHT22;7652;53.584;9.998;2023-07-13T04:53:03;17.20;99.90
15103;DHT22;7652;53.584;9.998;2023-07-13T04:56:25;17.30;99.90
15103;DHT22;7652;53.584;9.998;2023-07-13T04:59:48;17.40;99.90
15103;DHT22;7652;53.584;9.998;2023-07-13T05:03:10;17.40;99.90
15103;DHT22;7652;53.584;9.998;2023-07-13T05:06:32;17.40;99.90
15103;DHT22;7652;53.584;9.998;2023-07-13T05:09:54;17.60;99.90
15103;DHT22;7652;53.584;9.998;2023-07-13T05:13:15;17.60;99.90
15103;DHT22;7652;53.584;9.998;2023-07-13T05:16:38;17.70;99.90
15103;DHT22;7652;53.584;9.998;2023-07-13T05:19:59;17.80;99.90
15103;DHT22;7652;53.584;9.998;2023-07-13T05:23:20;17.90;99.90
15103;DHT22;7652;53.584;9.998;2023-07-13T05:26:42;17.90;99.90
15103;DHT22;7652;53.584;9.998;2023-07-13T05:30:05;18.00;99.90
15103;DHT22;7652;53.584;9.998;2023-07-13T05:33:28;18.10;99.90
15103;DHT22;7652;53.584;9.998;2023-07-13T05:36:50;18.20;99.90
15103;DHT22;7652;53.584;9.998;2023-07-13T05:40:12;18.20;99.90
15103;DHT22;7652;53.584;9.998;2023-07-13T05:43:34;18.20;99.90
15103;DHT22;7652;53.584;9.998;2023-07-13T05:46:55;18.20;99.90
15103;DHT22;7652;53.584;9.998;2023-07-13T05:50:18;18.20;99.90
15103;DHT22;7652;53.584;9.998;2023-07-13T05:53:40;18.10;99.90
15103;DHT22;7652;53.584;9.998;2023-07-13T05:57:01;18.00;99.90
15103;DHT22;7652;53.584;9.998;2023-07-13T06:00:22;18.00;99.90
15103;DHT22;7652;53.584;9.998;2023-07-13T06:03:44;17.90;99.90
15103;DHT22;7652;53.584;9.998;2023-07-13T06:07:07;17.90;99.90
15103;DHT22;7652;53.584;9.998;2023-07-13T06:10:28;17.90;99.90
15103;DHT22;7652;53.584;9.998;2023-07-13T06:13:50;17.90;99.90
15103;DHT22;7652;53.584;9.998;2023-07-13T06:17:12;17.90;99.90
15103;DHT22;7652;53.584;9.998;2023-07-13T06:20:34;17.90;99.90
15103;DHT22;7652;53.584;9.998;2023-07-13T06:23:57;17.90;99.90
15103;DHT22;7652;53.584;9.998;2023-07-13T06:27:19;17.90;99.90
15103;DHT22;7652;53.584;9.998;2023-07-13T06:30:40;17.90;99.90
15103;DHT22;7652;53.584;9.998;2023-07-13T06:34:02;17.90;99.90
15103;DHT22;7652;53.584;9.998;2023-07-13T06:37:24;18.00;99.90
15103;DHT22;7652;53.584;9.998;2023-07-13T06:40:47;18.10;99.90
15103;DHT22;7652;53.584;9.998;2023-07-13T06:44:08;18.10;99.90
15103;DHT22;7652;53.584;9.998;2023-07-13T06:47:30;18.20;99.90
15103;DHT22;7652;53.584;9.998;2023-07-13T06:50:53;18.20;99.90
15103;DHT22;7652;53.584;9.998;2023-07-13T06:54:15;18.30;99.90
15103;DHT22;7652;53.584;9.998;2023-07-13T06:57:38;18.40;99.90
15103;DHT22;7652;53.584;9.998;2023-07-13T07:00:59;18.40;99.90
15103;DHT22;7652;53.584;9.998;2023-07-13T07:04:21;18.50;99.90
15103;DHT22;7652;53.584;9.998;2023-07-13T07:07:43;18.50;99.90
15103;DHT22;7652;53.584;9.998;2023-07-13T07:11:04;18.60;99.90
15103;DHT22;7652;53.584;9.998;2023-07-13T07:14:27;18.70;99.90
15103;DHT22;7652;53.584;9.998;2023-07-13T07:17:48;18.70;99.90
15103;DHT22;7652;53.584;9.998;2023-07-13T07:21:10;18.80;99.90
15103;DHT22;7652;53.584;9.998;2023-07-13T07:24:32;19.00;99.90
15103;DHT22;7652;53.584;9.998;2023-07-13T07:27:54;19.20;99.90
15103;DHT22;7652;53.584;9.998;2023-07-13T07:31:19;19.30;99.90
15103;DHT22;7652;53.584;9.998;2023-07-13T07:34:44;19.40;99.90
15103;DHT22;7652;53.584;9.998;2023-07-13T07:38:06;19.50;99.90
15103;DHT22;7652;53.584;9.998;2023-07-13T07:41:29;19.60;99.90
15103;DHT22;7652;53.584;9.998;2023-07-13T07:44:53;19.70;99.90
15103;DHT22;7652;53.584;9.998;2023-07-13T07:48:16;19.80;99.90
15103;DHT22;7652;53.584;9.998;2023-07-13T07:51:38;19.80;99.90
15103;DHT22;7652;53.584;9.998;2023-07-13T07:54:59;19.90;99.90
15103;DHT22;7652;53.584;9.998;2023-07-13T07:58:24;20.00;99.90
15103;DHT22;7652;53.584;9.998;2023-07-13T08:01:48;20.10;99.90
15103;DHT22;7652;53.584;9.998;2023-07-13T08:05:14;20.00;99.90
15103;DHT22;7652;53.584;9.998;2023-07-13T08:08:39;20.10;99.90
15103;DHT22;7652;53.584;9.998;2023-07-13T08:12:01;20.20;99.90
15103;DHT22;7652;53.584;9.998;2023-07-13T08:15:26;20.30;99.90
15103;DHT22;7652;53.584;9.998;2023-07-13T08:18:48;20.40;99.90
15103;DHT22;7652;53.584;9.998;2023-07-13T08:22:12;20.50;99.90
15103;DHT22;7652;53.584;9.998;2023-07-13T08:25:33;20.70;99.90
15103;DHT22;7652;53.584;9.998;2023-07-13T08:28:54;20.80;99.90
15103;DHT22;7652;53.584;9.998;2023-07-13T08:32:16;20.90;99.90
15103;DHT22;7652;53.584;9.998;2023-07-13T08:35:38;20.90;99.90
15103;DHT22;7652;53.584;9.998;2023-07-13T08:39:01;20.90;99.90
15103;DHT22;7652;53.584;9.998;2023-07-13T08:42:36;20.90;99.90
15103;DHT22;7652;53.584;9.998;2023-07-13T08:46:02;20.70;99.90
15103;DHT22;7652;53.584;9.998;2023-07-13T08:49:26;20.70;99.90
15103;DHT22;7652;53.584;9.998;2023-07-13T08:52:48;20.70;99.90
15103;DHT22;7652;53.584;9.998;2023-07-13T08:56:18;20.70;99.90
15103;DHT22;7652;53.584;9.998;2023-07-13T08:59:40;20.70;99.90
15103;DHT22;7652;53.584;9.998;2023-07-13T09:03:02;20.70;99.90
15103;DHT22;7652;53.584;9.998;2023-07-13T09:06:31;20.80;99.90
15103;DHT22;7652;53.584;9.998;2023-07-13T09:10:05;20.90;99.90
15103;DHT22;7652;53.584;9.998;2023-07-13T09:13:37;21.00;99.90
15103;DHT22;7652;53.584;9.998;2023-07-13T09:17:00;21.10;99.90
15103;DHT22;7652;53.584;9.998;2023-07-13T09:20:29;21.10;99.90
15103;DHT22;7652;53.584;9.998;2023-07-13T09:23:53;21.10;99.90
15103;DHT22;7652;53.584;9.998;2023-07-13T09:27:21;21.20;99.90
15103;DHT22;7652;53.584;9.998;2023-07-13T09:30:51;21.20;99.90
15103;DHT22;7652;53.584;9.998;2023-07-13T09:34:14;21.40;99.90
15103;DHT22;7652;53.584;9.998;2023-07-13T09:37:35;21.60;99.90
15103;DHT22;7652;53.584;9.998;2023-07-13T09:41:02;21.80;99.90
15103;DHT22;7652;53.584;9.998;2023-07-13T09:44:34;21.90;99.90
15103;DHT22;7652;53.584;9.998;2023-07-13T09:48:05;22.10;99.90
15103;DHT22;7652;53.584;9.998;2023-07-13T09:51:28;22.10;99.90
15103;DHT22;7652;53.584;9.998;2023-07-13T09:54:51;22.10;99.90
15103;DHT22;7652;53.584;9.998;2023-07-13T09:58:16;22.20;99.90
15103;DHT22;7652;53.584;9.998;2023-07-13T10:01:40;22.10;99.90
15103;DHT22;7652;53.584;9.998;2023-07-13T10:05:05;22.10;99.90
15103;DHT22;7652;53.584;9.998;2023-07-13T10:08:29;22.00;99.90
15103;DHT22;7652;53.584;9.998;2023-07-13T10:11:52;22.00;99.90
15103;DHT22;7652;53.584;9.998;2023-07-13T10:15:16;22.00;99.90
15103;DHT22;7652;53.584;9.998;2023-07-13T10:18:47;22.00;99.90
15103;DHT22;7652;53.584;9.998;2023-07-13T10:22:16;22.40;99.90
15103;DHT22;7652;53.584;9.998;2023-07-13T10:25:43;22.60;99.90
15103;DHT22;7652;53.584;9.998;2023-07-13T10:29:10;22.70;99.90
15103;DHT22;7652;53.584;9.998;2023-07-13T10:32:32;22.60;99.90
15103;DHT22;7652;53.584;9.998;2023-07-13T10:36:12;22.60;99.90
15103;DHT22;7652;53.584;9.998;2023-07-13T10:39:39;22.60;99.90
15103;DHT22;7652;53.584;9.998;2023-07-13T10:43:04;22.60;99.90
15103;DHT22;7652;53.584;9.998;2023-07-13T10:46:28;22.60;99.90
15103;DHT22;7652;53.584;9.998;2023-07-13T10:49:54;22.70;99.90
15103;DHT22;7652;53.584;9.998;2023-07-13T10:53:19;22.80;99.90
15103;DHT22;7652;53.584;9.998;2023-07-13T10:56:42;22.90;99.90
15103;DHT22;7652;53.584;9.998;2023-07-13T11:00:15;23.00;99.90
15103;DHT22;7652;53.584;9.998;2023-07-13T11:03:47;23.20;99.90
15103;DHT22;7652;53.584;9.998;2023-07-13T11:07:20;23.10;99.90
15103;DHT22;7652;53.584;9.998;2023-07-13T11:10:51;23.30;99.90
15103;DHT22;7652;53.584;9.998;2023-07-13T11:14:30;23.50;99.90
15103;DHT22;7652;53.584;9.998;2023-07-13T11:17:54;23.70;99.90
15103;DHT22;7652;53.584;9.998;2023-07-13T11:21:22;23.60;99.90
15103;DHT22;7652;53.584;9.998;2023-07-13T11:24:56;23.50;99.90
15103;DHT22;7652;53.584;9.998;2023-07-13T11:28:23;23.50;99.90
15103;DHT22;7652;53.584;9.998;2023-07-13T11:31:52;23.40;99.90
15103;DHT22;7652;53.584;9.998;2023-07-13T11:35:19;23.50;99.90
15103;DHT22;7652;53.584;9.998;2023-07-13T11:38:45;23.60;99.90
15103;DHT22;7652;53.584;9.998;2023-07-13T11:42:10;23.80;99.90
15103;DHT22;7652;53.584;9.998;2023-07-13T11:45:33;23.90;99.90
15103;DHT22;7652;53.584;9.998;2023-07-13T11:49:14;24.00;99.90
15103;DHT22;7652;53.584;9.998;2023-07-13T11:52:37;24.00;99.90
15103;DHT22;7652;53.584;9.998;2023-07-13T11:55:58;24.10;99.90
15103;DHT22;7652;53.584;9.998;2023-07-13T11:59:20;24.10;99.90
15103;DHT22;7652;53.584;9.998;2023-07-13T12:02:46;23.80;99.90
15103;DHT22;7652;53.584;9.998;2023-07-13T12:06:23;23.70;99.90
15103;DHT22;7652;53.584;9.998;2023-07-13T12:09:48;23.40;99.90
15103;DHT22;7652;53.584;9.998;2023-07-13T12:13:11;23.30;99.90
15103;DHT22;7652;53.584;9.998;2023-07-13T12:16:33;23.20;99.90
15103;DHT22;7652;53.584;9.998;2023-07-13T12:19:56;23.00;99.90
15103;DHT22;7652;53.584;9.998;2023-07-13T12:23:23;22.40;99.90
15103;DHT22;7652;53.584;9.998;2023-07-13T12:26:51;20.60;99.90
15103;DHT22;7652;53.584;9.998;2023-07-13T12:30:25;19.40;99.90
15103;DHT22;7652;53.584;9.998;2023-07-13T12:33:56;18.40;99.90
15103;DHT22;7652;53.584;9.998;2023-07-13T12:37:18;17.90;99.90
15103;DHT22;7652;53.584;9.998;2023-07-13T12:40:42;17.60;99.90
15103;DHT22;7652;53.584;9.998;2023-07-13T12:44:05;17.70;99.90
15103;DHT22;7652;53.584;9.998;2023-07-13T12:47:29;17.80;99.90
15103;DHT22;7652;53.584;9.998;2023-07-13T12:50:53;18.00;99.90
15103;DHT22;7652;53.584;9.998;2023-07-13T12:54:17;18.50;99.90
15103;DHT22;7652;53.584;9.998;2023-07-13T12:57:43;18.70;99.90
15103;DHT22;7652;53.584;9.998;2023-07-13T13:01:08;18.90;99.90
15103;DHT22;7652;53.584;9.998;2023-07-13T13:04:33;19.50;99.90
15103;DHT22;7652;53.584;9.998;2023-07-13T13:07:54;19.70;99.90
15103;DHT22;7652;53.584;9.998;2023-07-13T13:11:15;19.50;99.90
15103;DHT22;7652;53.584;9.998;2023-07-13T13:14:38;19.30;99.90
15103;DHT22;7652;53.584;9.998;2023-07-13T13:18:00;19.10;99.90
15103;DHT22;7652;53.584;9.998;2023-07-13T13:21:23;18.90;99.90
15103;DHT22;7652;53.584;9.998;2023-07-13T13:24:45;18.70;99.90
15103;DHT22;7652;53.584;9.998;2023-07-13T13:28:13;18.80;99.90
15103;DHT22;7652;53.584;9.998;2023-07-13T13:31:36;19.00;99.90
15103;DHT22;7652;53.584;9.998;2023-07-13T13:34:58;19.30;99.90
15103;DHT22;7652;53.584;9.998;2023-07-13T13:38:22;19.40;99.90
15103;DHT22;7652;53.584;9.998;2023-07-13T13:41:45;19.50;99.90
15103;DHT22;7652;53.584;9.998;2023-07-13T13:45:08;19.70;99.90
15103;DHT22;7652;53.584;9.998;2023-07-13T13:48:35;19.80;99.90
15103;DHT22;7652;53.584;9.998;2023-07-13T13:52:00;20.00;99.90
15103;DHT22;7652;53.584;9.998;2023-07-13T13:55:22;20.00;99.90
15103;DHT22;7652;53.584;9.998;2023-07-13T13:58:44;20.10;99.90
15103;DHT22;7652;53.584;9.998;2023-07-13T14:02:22;20.20;99.90
15103;DHT22;7652;53.584;9.998;2023-07-13T14:05:45;20.20;99.90
15103;DHT22;7652;53.584;9.998;2023-07-13T14:09:09;20.20;99.90
15103;DHT22;7652;53.584;9.998;2023-07-13T14:12:31;20.20;99.90
15103;DHT22;7652;53.584;9.998;2023-07-13T14:15:52;20.30;99.90
15103;DHT22;7652;53.584;9.998;2023-07-13T14:19:14;20.60;99.90
15103;DHT22;7652;53.584;9.998;2023-07-13T14:22:37;20.70;99.90
15103;DHT22;7652;53.584;9.998;2023-07-13T14:25:59;20.50;99.90
15103;DHT22;7652;53.584;9.998;2023-07-13T14:29:20;20.60;99.90
15103;DHT22;7652;53.584;9.998;2023-07-13T14:32:44;20.60;99.90
15103;DHT22;7652;53.584;9.998;2023-07-13T14:36:27;20.60;99.90
15103;DHT22;7652;53.584;9.998;2023-07-13T14:39:51;20.70;99.90
15103;DHT22;7652;53.584;9.998;2023-07-13T14:43:14;21.00;99.90
15103;DHT22;7652;53.584;9.998;2023-07-13T14:46:36;21.20;99.90
15103;DHT22;7652;53.584;9.998;2023-07-13T14:50:01;21.20;99.90
15103;DHT22;7652;53.584;9.998;2023-07-13T14:53:26;21.10;99.90
15103;DHT22;7652;53.584;9.998;2023-07-13T14:56:50;21.10;99.90
15103;DHT22;7652;53.584;9.998;2023-07-13T15:00:16;20.90;99.90
15103;DHT22;7652;53.584;9.998;2023-07-13T15:03:42;20.80;99.90
15103;DHT22;7652;53.584;9.998;2023-07-13T15:07:05;20.80;99.90
15103;DHT22;7652;53.584;9.998;2023-07-13T15:10:28;20.80;99.90
15103;DHT22;7652;53.584;9.998;2023-07-13T15:13:51;20.80;99.90
15103;DHT22;7652;53.584;9.998;2023-07-13T15:17:23;20.90;99.90
15103;DHT22;7652;53.584;9.998;2023-07-13T15:20:48;21.00;99.90
15103;DHT22;7652;53.584;9.998;2023-07-13T15:24:10;20.90;99.90
15103;DHT22;7652;53.584;9.998;2023-07-13T15:27:33;20.80;99.90
15103;DHT22;7652;53.584;9.998;2023-07-13T15:30:59;20.70;99.90
15103;DHT22;7652;53.584;9.998;2023-07-13T15:34:24;20.70;99.90
15103;DHT22;7652;53.584;9.998;2023-07-13T15:37:48;20.70;99.90
15103;DHT22;7652;53.584;9.998;2023-07-13T15:41:16;20.60;99.90
15103;DHT22;7652;53.584;9.998;2023-07-13T15:44:39;20.70;99.90
15103;DHT22;7652;53.584;9.998;2023-07-13T15:48:01;20.80;99.90
15103;DHT22;7652;53.584;9.998;2023-07-13T15:51:26;20.90;99.90
15103;DHT22;7652;53.584;9.998;2023-07-13T15:54:48;20.90;99.90
15103;DHT22;7652;53.584;9.998;2023-07-13T15:58:11;21.00;99.90
15103;DHT22;7652;53.584;9.998;2023-07-13T16:01:35;21.00;99.90
15103;DHT22;7652;53.584;9.998;2023-07-13T16:04:58;21.10;99.90
15103;DHT22;7652;53.584;9.998;2023-07-13T16:08:23;21.10;99.90
15103;DHT22;7652;53.584;9.998;2023-07-13T16:11:46;21.20;99.90
15103;DHT22;7652;53.584;9.998;2023-07-13T16:15:14;21.20;99.90
15103;DHT22;7652;53.584;9.998;2023-07-13T16:18:36;21.10;99.90
15103;DHT22;7652;53.584;9.998;2023-07-13T16:21:59;21.00;99.90
15103;DHT22;7652;53.584;9.998;2023-07-13T16:25:23;21.00;99.90
15103;DHT22;7652;53.584;9.998;2023-07-13T16:28:45;20.90;99.90
15103;DHT22;7652;53.584;9.998;2023-07-13T16:32:10;20.90;99.90
15103;DHT22;7652;53.584;9.998;2023-07-13T16:35:34;20.90;99.90
15103;DHT22;7652;53.584;9.998;2023-07-13T16:38:57;20.90;99.90
15103;DHT22;7652;53.584;9.998;2023-07-13T16:42:19;20.90;99.90
15103;DHT22;7652;53.584;9.998;2023-07-13T16:45:40;20.90;99.90
15103;DHT22;7652;53.584;9.998;2023-07-13T16:49:04;20.90;99.90
15103;DHT22;7652;53.584;9.998;2023-07-13T16:52:32;20.80;99.90
15103;DHT22;7652;53.584;9.998;2023-07-13T16:55:55;20.80;99.90
15103;DHT22;7652;53.584;9.998;2023-07-13T16:59:21;20.70;99.90
15103;DHT22;7652;53.584;9.998;2023-07-13T17:02:43;20.60;99.90
15103;DHT22;7652;53.584;9.998;2023-07-13T17:06:20;20.50;99.90
15103;DHT22;7652;53.584;9.998;2023-07-13T17:09:44;20.60;99.90
15103;DHT22;7652;53.584;9.998;2023-07-13T17:13:10;20.60;99.90
15103;DHT22;7652;53.584;9.998;2023-07-13T17:16:32;20.70;99.90
15103;DHT22;7652;53.584;9.998;2023-07-13T17:19:55;20.60;99.90
15103;DHT22;7652;53.584;9.998;2023-07-13T17:23:21;20.70;99.90
15103;DHT22;7652;53.584;9.998;2023-07-13T17:26:45;20.70;99.90
15103;DHT22;7652;53.584;9.998;2023-07-13T17:30:14;20.60;99.90
15103;DHT22;7652;53.584;9.998;2023-07-13T17:33:38;20.60;99.90
15103;DHT22;7652;53.584;9.998;2023-07-13T17:37:00;20.50;99.90
15103;DHT22;7652;53.584;9.998;2023-07-13T17:40:22;20.40;99.90
15103;DHT22;7652;53.584;9.998;2023-07-13T17:43:45;20.30;99.90
15103;DHT22;7652;53.584;9.998;2023-07-13T17:47:21;20.30;99.90
15103;DHT22;7652;53.584;9.998;2023-07-13T17:50:44;20.30;99.90
15103;DHT22;7652;53.584;9.998;2023-07-13T17:54:12;20.20;99.90
15103;DHT22;7652;53.584;9.998;2023-07-13T17:57:34;20.20;99.90
15103;DHT22;7652;53.584;9.998;2023-07-13T18:00:55;20.10;99.90
15103;DHT22;7652;53.584;9.998;2023-07-13T18:04:18;20.10;99.90
15103;DHT22;7652;53.584;9.998;2023-07-13T18:07:43;20.00;99.90
15103;DHT22;7652;53.584;9.998;2023-07-13T18:11:04;20.00;99.90
15103;DHT22;7652;53.584;9.998;2023-07-13T18:14:25;19.90;99.90
15103;DHT22;7652;53.584;9.998;2023-07-13T18:17:49;19.90;99.90
15103;DHT22;7652;53.584;9.998;2023-07-13T18:21:13;19.90;99.90
15103;DHT22;7652;53.584;9.998;2023-07-13T18:24:38;19.90;99.90
15103;DHT22;7652;53.584;9.998;2023-07-13T18:28:00;19.80;99.90
15103;DHT22;7652;53.584;9.998;2023-07-13T18:31:23;19.80;99.90
15103;DHT22;7652;53.584;9.998;2023-07-13T18:34:47;19.70;99.90
15103;DHT22;7652;53.584;9.998;2023-07-13T18:38:17;19.80;99.90
15103;DHT22;7652;53.584;9.998;2023-07-13T18:41:39;19.80;99.90
15103;DHT22;7652;53.584;9.998;2023-07-13T18:45:01;19.80;99.90
15103;DHT22;7652;53.584;9.998;2023-07-13T18:48:25;19.90;99.90
15103;DHT22;7652;53.584;9.998;2023-07-13T18:51:47;19.80;99.90
15103;DHT22;7652;53.584;9.998;2023-07-13T18:55:19;19.70;99.90
15103;DHT22;7652;53.584;9.998;2023-07-13T18:58:41;19.60;99.90
15103;DHT22;7652;53.584;9.998;2023-07-13T19:02:08;19.60;99.90
15103;DHT22;7652;53.584;9.998;2023-07-13T19:05:33;19.60;99.90
15103;DHT22;7652;53.584;9.998;2023-07-13T19:09:15;19.60;99.90
15103;DHT22;7652;53.584;9.998;2023-07-13T19:12:37;19.60;99.90
15103;DHT22;7652;53.584;9.998;2023-07-13T19:16:00;19.50;99.90
15103;DHT22;7652;53.584;9.998;2023-07-13T19:19:21;19.40;99.90
15103;DHT22;7652;53.584;9.998;2023-07-13T19:22:44;19.20;99.90
15103;DHT22;7652;53.584;9.998;2023-07-13T19:26:15;19.20;99.90
15103;DHT22;7652;53.584;9.998;2023-07-13T19:29:40;19.10;99.90
15103;DHT22;7652;53.584;9.998;2023-07-13T19:33:02;19.00;99.90
15103;DHT22;7652;53.584;9.998;2023-07-13T19:36:26;18.80;99.90
15103;DHT22;7652;53.584;9.998;2023-07-13T19:39:47;18.70;99.90
15103;DHT22;7652;53.584;9.998;2023-07-13T19:43:12;18.70;99.90
15103;DHT22;7652;53.584;9.998;2023-07-13T19:46:36;18.70;99.90
15103;DHT22;7652;53.584;9.998;2023-07-13T19:49:58;18.70;99.90
15103;DHT22;7652;53.584;9.998;2023-07-13T19:53:20;18.70;99.90
15103;DHT22;7652;53.584;9.998;2023-07-13T19:56:42;18.70;99.90
15103;DHT22;7652;53.584;9.998;2023-07-13T20:00:12;18.70;99.90
15103;DHT22;7652;53.584;9.998;2023-07-13T20:03:36;18.70;99.90
15103;DHT22;7652;53.584;9.998;2023-07-13T20:06:58;18.60;99.90
15103;DHT22;7652;53.584;9.998;2023-07-13T20:10:25;18.60;99.90
15103;DHT22;7652;53.584;9.998;2023-07-13T20:13:47;18.50;99.90
15103;DHT22;7652;53.584;9.998;2023-07-13T20:20:57;18.50;99.90
15103;DHT22;7652;53.584;9.998;2023-07-13T20:24:19;18.40;99.90
15103;DHT22;7652;53.584;9.998;2023-07-13T20:27:41;18.40;99.90
15103;DHT22;7652;53.584;9.998;2023-07-13T20:31:03;18.30;99.90
15103;DHT22;7652;53.584;9.998;2023-07-13T20:34:25;18.30;99.90
15103;DHT22;7652;53.584;9.998;2023-07-13T20:37:51;18.20;99.90
15103;DHT22;7652;53.584;9.998;2023-07-13T20:41:13;18.30;99.90
15103;DHT22;7652;53.584;9.998;2023-07-13T20:44:34;18.20;99.90
15103;DHT22;7652;53.584;9.998;2023-07-13T20:47:59;18.10;99.90
15103;DHT22;7652;53.584;9.998;2023-07-13T20:51:21;18.10;99.90
15103;DHT22;7652;53.584;9.998;2023-07-13T20:54:45;18.10;99.90
15103;DHT22;7652;53.584;9.998;2023-07-13T20:58:08;18.10;99.90
15103;DHT22;7652;53.584;9.998;2023-07-13T21:01:32;18.10;99.90
15103;DHT22;7652;53.584;9.998;2023-07-13T21:04:54;18.10;99.90
15103;DHT22;7652;53.584;9.998;2023-07-13T21:08:18;17.90;99.90
15103;DHT22;7652;53.584;9.998;2023-07-13T21:11:41;17.90;99.90
15103;DHT22;7652;53.584;9.998;2023-07-13T21:15:02;17.90;99.90
15103;DHT22;7652;53.584;9.998;2023-07-13T21:18:25;17.90;99.90
15103;DHT22;7652;53.584;9.998;2023-07-13T21:21:46;17.80;99.90
15103;DHT22;7652;53.584;9.998;2023-07-13T21:25:12;17.80;99.90
15103;DHT22;7652;53.584;9.998;2023-07-13T21:28:37;17.70;99.90
15103;DHT22;7652;53.584;9.998;2023-07-13T21:31:59;17.70;99.90
15103;DHT22;7652;53.584;9.998;2023-07-13T21:35:27;17.70;99.90
15103;DHT22;7652;53.584;9.998;2023-07-13T21:38:54;17.60;99.90
15103;DHT22;7652;53.584;9.998;2023-07-13T21:42:16;17.50;99.90
15103;DHT22;7652;53.584;9.998;2023-07-13T21:45:39;17.50;99.90
15103;DHT22;7652;53.584;9.998;2023-07-13T21:49:01;17.40;99.90
15103;DHT22;7652;53.584;9.998;2023-07-13T21:52:23;17.40;99.90